Detroit, Michigan
Traffic Map
Current Weather Conditions
Detroit, Michigan
Clear
Clear
-14°
Feels Like: -22°
Wind Chill: -22° Ceiling: Unl
Heat Index: -14° Visibility: 15mi
Dew Point: -20° Wind: 9mph
Humidity: 61% Direction: 220° (SW)
Pressure: 30.61in Gusts: 0mph
Raw Report DataCYQG 280100Z 22008KT 15SM SKC M14/M20 A3061 RMK SLP382
Traffic Incident Summary
Active as of:
Severity:
Category:
InformationThere was an issue retrieving the traffic information for this location. Please try a different location or try again shortly.
Advertisements
Track Severe Weather on mobile